PWSweather.com
Personal Weather Stations
Station Observations
NCCALABA57
The Farm, Calabash, NC 28467

The FarmCalabash, NC 28467

Lat: 33.9246539, Lon: -78.5696509

Elevation: 44

Station Type: Davis Vantage Pro 2

Latest ConditionsUpdated 7:00:01 PM EDT Tuesday, Mar 26, 2019
Currently Today's Max Today's Min Today's Average
Temperature 56.2°F13.4°C 63.3°F17.4°C 49.6°F9.8°C 55.2°F12.9°C
Dew Point 40.7°F4.8°C 57.7°F14.3°C 40.7°F4.8°C 50.2°F10.1°C
Winds 4.6 mph NNW7.4 kmh NNW 12.7 mph -20.4 kmh - - 5.1 mph 8.2 kmh
Wind Gusts 6.9 mph11.1 kmh 17.3 mph27.8 kmh - -
Humidity 56% 97% 55% 84%
Pressure 30.20 in1022.7 mb 30.20 in1022.7 mb 29.93 in1013.5 mb -
Precipitation - 0.44 in11.2 mm - -
Hour Temp Dew Point Humidity Winds Wind Gusts Pressure Precip Precip Rate Daily Precip Total
07:00 PM 56.2°F13.4°C 40.7°F4.8°C 56% 4.6 mph NNW7.4 kmh NNW 6.9 mph11.1 kmh 30.20 in1022.7 mb - 0.00 in0.0 mm 0.44 in11.2 mm
06:30 PM 57.5°F14.2°C 41.5°F5.3°C 55% 8.1 mph N13.0 kmh N 9.2 mph14.8 kmh 30.18 in1022.0 mb - 0.00 in0.0 mm 0.44 in11.2 mm
06:00 PM 57.3°F14.1°C 44.0°F6.7°C 61% 3.5 mph NW5.6 kmh NW 3.5 mph5.6 kmh 30.17 in1021.7 mb - 0.00 in0.0 mm 0.44 in11.2 mm
05:30 PM 59.2°F15.1°C 44.9°F7.2°C 59% 8.1 mph NW13.0 kmh NW 9.2 mph14.8 kmh 30.16 in1021.3 mb - 0.00 in0.0 mm 0.44 in11.2 mm
05:00 PM 58.2°F14.6°C 45.7°F7.6°C 63% 8.1 mph WNW13.0 kmh WNW 8.1 mph13.0 kmh 30.16 in1021.3 mb - 0.00 in0.0 mm 0.44 in11.2 mm
04:30 PM 57.9°F14.4°C 45.8°F7.7°C 64% 11.5 mph N18.5 kmh N 17.3 mph27.8 kmh 30.16 in1021.3 mb - 0.00 in0.0 mm 0.44 in11.2 mm
04:00 PM 57.7°F14.3°C 45.6°F7.6°C 64% 6.9 mph NNE11.1 kmh NNE 12.7 mph20.4 kmh 30.16 in1021.3 mb - 0.00 in0.0 mm 0.44 in11.2 mm
03:30 PM 56.7°F13.7°C 45.8°F7.7°C 67% 10.4 mph N16.7 kmh N 13.8 mph22.2 kmh 30.16 in1021.3 mb - 0.00 in0.0 mm 0.44 in11.2 mm
03:00 PM 55.5°F13.1°C 46.6°F8.1°C 72% 9.2 mph N14.8 kmh N 10.4 mph16.7 kmh 30.15 in1021.0 mb - 0.00 in0.0 mm 0.44 in11.2 mm
02:30 PM 53.4°F11.9°C 45.7°F7.6°C 75% 9.2 mph NNE14.8 kmh NNE 12.7 mph20.4 kmh 30.16 in1021.3 mb - 0.00 in0.0 mm 0.44 in11.2 mm
02:00 PM 51.5°F10.8°C 44.8°F7.1°C 78% 12.7 mph N20.4 kmh N 13.8 mph22.2 kmh 30.16 in1021.3 mb - 0.00 in0.0 mm 0.44 in11.2 mm
01:30 PM 50.7°F10.4°C 45.4°F7.4°C 82% 8.1 mph N13.0 kmh N 11.5 mph18.5 kmh 30.16 in1021.3 mb - 0.00 in0.0 mm 0.44 in11.2 mm
01:00 PM 50.6°F10.3°C 46.3°F7.9°C 85% 6.9 mph NNW11.1 kmh NNW 11.5 mph18.5 kmh 30.16 in1021.3 mb - 0.00 in0.0 mm 0.44 in11.2 mm
12:30 PM 50.8°F10.4°C 46.2°F7.9°C 84% 11.5 mph NNE18.5 kmh NNE 12.7 mph20.4 kmh 30.16 in1021.3 mb - 0.00 in0.0 mm 0.44 in11.2 mm
12:00 PM 50.6°F10.3°C 46.5°F8.1°C 86% 8.1 mph N13.0 kmh N 11.5 mph18.5 kmh 30.15 in1021.0 mb - 0.00 in0.0 mm 0.44 in11.2 mm
11:30 AM 49.6°F9.8°C 46.8°F8.2°C 90% 4.6 mph N7.4 kmh N 11.5 mph18.5 kmh 30.14 in1020.7 mb - 0.00 in0.0 mm 0.44 in11.2 mm
11:00 AM 49.9°F9.9°C 47.1°F8.4°C 90% 8.1 mph N13.0 kmh N 10.4 mph16.7 kmh 30.12 in1020.0 mb - 0.07 in1.8 mm 0.44 in11.2 mm
10:30 AM 49.6°F9.8°C 47.6°F8.7°C 93% 8.1 mph N13.0 kmh N 11.5 mph18.5 kmh 30.12 in1020.0 mb - 0.07 in1.8 mm 0.44 in11.2 mm
10:00 AM 50.1°F10.1°C 48.2°F9.0°C 93% 6.9 mph NNW11.1 kmh NNW 15.0 mph24.1 kmh 30.10 in1019.3 mb - 0.06 in1.5 mm 0.37 in9.4 mm
09:30 AM 51.3°F10.7°C 50.2°F10.1°C 96% 8.1 mph N13.0 kmh N 9.2 mph14.8 kmh 30.09 in1019.0 mb - 0.35 in8.9 mm 0.37 in9.4 mm
09:00 AM 51.8°F11.0°C 50.4°F10.2°C 95% 9.2 mph N14.8 kmh N 12.7 mph20.4 kmh 30.06 in1017.9 mb - 0.30 in7.6 mm 0.32 in8.1 mm
08:30 AM 56.0°F13.3°C 54.9°F12.7°C 96% Calm Calm 2.3 mph3.7 kmh 30.03 in1016.9 mb - 0.00 in0.0 mm 0.02 in0.5 mm
08:00 AM 55.8°F13.2°C 54.7°F12.6°C 96% 1.2 mph NW1.9 kmh NW 2.3 mph3.7 kmh 30.02 in1016.6 mb - 0.00 in0.0 mm 0.02 in0.5 mm
07:00 AM 55.8°F13.2°C 54.7°F12.6°C 96% Calm Calm 1.2 mph1.9 kmh 29.99 in1015.6 mb - 0.00 in0.0 mm 0.02 in0.5 mm
06:30 AM 56.0°F13.3°C 55.1°F12.8°C 97% Calm Calm -- 29.98 in1015.2 mb - 0.00 in0.0 mm 0.02 in0.5 mm
06:00 AM 56.0°F13.3°C 55.2°F12.9°C 97% 1.2 mph W1.9 kmh W 1.2 mph1.9 kmh 29.98 in1015.2 mb - 0.00 in0.0 mm 0.02 in0.5 mm
05:30 AM 55.9°F13.3°C 54.8°F12.7°C 96% Calm Calm -- 29.96 in1014.6 mb - 0.00 in0.0 mm 0.02 in0.5 mm
05:00 AM 56.4°F13.6°C 55.5°F13.1°C 97% 2.3 mph WNW3.7 kmh WNW 2.3 mph3.7 kmh 29.94 in1013.9 mb - 0.00 in0.0 mm 0.02 in0.5 mm
04:30 AM 56.4°F13.6°C 55.6°F13.1°C 97% 1.2 mph NW1.9 kmh NW 2.3 mph3.7 kmh 29.93 in1013.5 mb - 0.00 in0.0 mm 0.02 in0.5 mm
04:00 AM 55.8°F13.2°C 54.7°F12.6°C 96% Calm Calm -- 29.93 in1013.5 mb - 0.00 in0.0 mm 0.02 in0.5 mm
03:30 AM 56.2°F13.4°C 55.1°F12.8°C 96% Calm Calm -- 29.93 in1013.5 mb - 0.00 in0.0 mm 0.02 in0.5 mm
03:00 AM 56.7°F13.7°C 55.3°F12.9°C 95% Calm Calm 1.2 mph1.9 kmh 29.95 in1014.2 mb - 0.00 in0.0 mm 0.02 in0.5 mm
02:30 AM 56.9°F13.8°C 55.5°F13.1°C 95% 1.2 mph NW1.9 kmh NW 1.2 mph1.9 kmh 29.94 in1013.9 mb - 0.01 in0.3 mm 0.02 in0.5 mm
02:00 AM 56.9°F13.8°C 55.5°F13.1°C 95% 4.6 mph N7.4 kmh N 4.6 mph7.4 kmh 29.95 in1014.2 mb - 0.01 in0.3 mm 0.02 in0.5 mm
01:30 AM 57.5°F14.2°C 55.5°F13.1°C 93% 2.3 mph N3.7 kmh N 2.3 mph3.7 kmh 29.95 in1014.2 mb - 0.01 in0.3 mm 0.01 in0.3 mm
01:00 AM 58.6°F14.8°C 56.3°F13.5°C 92% 2.3 mph NNE3.7 kmh NNE 3.5 mph5.6 kmh 29.98 in1015.2 mb - 0.01 in0.3 mm 0.01 in0.3 mm
12:30 AM 61.5°F16.4°C 56.6°F13.7°C 84% 2.3 mph WNW3.7 kmh WNW 12.7 mph20.4 kmh 29.99 in1015.6 mb - 0.00 in0.0 mm 0.00 in0.0 mm
12:00 AM 63.3°F17.4°C 57.7°F14.3°C 82% 2.3 mph WNW3.7 kmh WNW 10.4 mph16.7 kmh 29.97 in1014.9 mb - 0.00 in0.0 mm 0.00 in0.0 mm